sensor_id;sensor_type;location;lat;lon;timestamp;pressure;altitude;pressure_sealevel;temperature;humidity
46456;BME280;64052;47.466;9.094;2023-03-31T00:02:48;95298.53;;;14.34;50.66
46456;BME280;64052;47.466;9.094;2023-03-31T00:07:54;95294.38;;;14.40;50.38
46456;BME280;64052;47.466;9.094;2023-03-31T00:12:56;95296.88;;;14.33;50.22
46456;BME280;64052;47.466;9.094;2023-03-31T00:17:58;95282.63;;;14.17;51.04
46456;BME280;64052;47.466;9.094;2023-03-31T00:22:59;95277.00;;;14.12;50.42
46456;BME280;64052;47.466;9.094;2023-03-31T00:28:01;95274.84;;;13.83;51.64
46456;BME280;64052;47.466;9.094;2023-03-31T00:33:03;95265.91;;;13.92;51.99
46456;BME280;64052;47.466;9.094;2023-03-31T00:38:05;95253.47;;;14.01;51.20
46456;BME280;64052;47.466;9.094;2023-03-31T00:43:16;95244.84;;;14.07;50.71
46456;BME280;64052;47.466;9.094;2023-03-31T00:48:22;95237.91;;;13.89;51.10
46456;BME280;64052;47.466;9.094;2023-03-31T00:53:27;95228.63;;;13.94;50.76
46456;BME280;64052;47.466;9.094;2023-03-31T00:58:30;95231.97;;;13.71;50.76
46456;BME280;64052;47.466;9.094;2023-03-31T01:03:32;95219.38;;;13.81;51.02
46456;BME280;64052;47.466;9.094;2023-03-31T01:08:34;95216.56;;;13.83;51.21
46456;BME280;64052;47.466;9.094;2023-03-31T01:13:37;95210.78;;;13.96;50.86
46456;BME280;64052;47.466;9.094;2023-03-31T01:18:43;95219.50;;;14.13;50.30
46456;BME280;64052;47.466;9.094;2023-03-31T01:56:15;95174.63;;;14.11;50.66
46456;BME280;64052;47.466;9.094;2023-03-31T02:01:40;95159.50;;;14.28;50.46
46456;BME280;64052;47.466;9.094;2023-03-31T02:06:48;95148.41;;;14.25;50.85
46456;BME280;64052;47.466;9.094;2023-03-31T02:11:52;95146.22;;;14.28;51.27
46456;BME280;64052;47.466;9.094;2023-03-31T02:16:57;95143.38;;;14.30;51.12
46456;BME280;64052;47.466;9.094;2023-03-31T02:22:01;95146.53;;;14.33;51.90
46456;BME280;64052;47.466;9.094;2023-03-31T02:27:18;95135.94;;;14.33;51.70
46456;BME280;64052;47.466;9.094;2023-03-31T02:32:34;95116.75;;;14.23;51.95
46456;BME280;64052;47.466;9.094;2023-03-31T02:37:37;95118.75;;;14.21;52.26
46456;BME280;64052;47.466;9.094;2023-03-31T02:42:40;95100.03;;;14.23;53.16
46456;BME280;64052;47.466;9.094;2023-03-31T02:47:42;95101.47;;;14.25;53.03
46456;BME280;64052;47.466;9.094;2023-03-31T02:52:46;95093.75;;;14.15;53.04
46456;BME280;64052;47.466;9.094;2023-03-31T03:04:18;95055.19;;;14.04;53.45
46456;BME280;64052;47.466;9.094;2023-03-31T03:09:39;95035.78;;;14.12;53.41
46456;BME280;64052;47.466;9.094;2023-03-31T03:14:57;95029.19;;;14.08;53.47
46456;BME280;64052;47.466;9.094;2023-03-31T03:20:02;95007.41;;;13.81;55.25
46456;BME280;64052;47.466;9.094;2023-03-31T03:25:05;94986.22;;;13.81;56.19
46456;BME280;64052;47.466;9.094;2023-03-31T03:30:09;94981.63;;;13.75;56.89
46456;BME280;64052;47.466;9.094;2023-03-31T03:35:11;94990.75;;;13.64;55.78
46456;BME280;64052;47.466;9.094;2023-03-31T03:40:12;94962.63;;;13.63;55.94
46456;BME280;64052;47.466;9.094;2023-03-31T03:45:14;94948.56;;;13.62;55.52
46456;BME280;64052;47.466;9.094;2023-03-31T03:50:16;94917.00;;;13.53;56.09
46456;BME280;64052;47.466;9.094;2023-03-31T03:55:18;94882.72;;;13.43;56.17
46456;BME280;64052;47.466;9.094;2023-03-31T04:00:19;94868.78;;;13.57;56.14
46456;BME280;64052;47.466;9.094;2023-03-31T04:05:21;94855.59;;;13.49;56.74
46456;BME280;64052;47.466;9.094;2023-03-31T04:10:22;94817.88;;;13.39;57.11
46456;BME280;64052;47.466;9.094;2023-03-31T04:15:24;94808.81;;;13.33;56.57
46456;BME280;64052;47.466;9.094;2023-03-31T04:20:25;94798.09;;;13.26;56.22
46456;BME280;64052;47.466;9.094;2023-03-31T04:25:27;94792.56;;;13.13;57.00
46456;BME280;64052;47.466;9.094;2023-03-31T04:30:29;94760.78;;;13.13;57.13
46456;BME280;64052;47.466;9.094;2023-03-31T04:35:30;94761.53;;;12.98;57.22
46456;BME280;64052;47.466;9.094;2023-03-31T04:40:32;94757.53;;;13.02;57.41
46456;BME280;64052;47.466;9.094;2023-03-31T04:45:34;94741.13;;;13.07;56.89
46456;BME280;64052;47.466;9.094;2023-03-31T04:50:36;94706.69;;;13.15;56.70
46456;BME280;64052;47.466;9.094;2023-03-31T04:55:37;94716.09;;;13.18;56.82
46456;BME280;64052;47.466;9.094;2023-03-31T05:00:39;94693.19;;;13.33;55.32
46456;BME280;64052;47.466;9.094;2023-03-31T05:05:40;94677.41;;;13.40;55.03
46456;BME280;64052;47.466;9.094;2023-03-31T05:10:42;94676.75;;;13.15;55.11
46456;BME280;64052;47.466;9.094;2023-03-31T05:15:44;94666.94;;;13.00;55.11
46456;BME280;64052;47.466;9.094;2023-03-31T05:20:45;94645.13;;;12.98;55.60
46456;BME280;64052;47.466;9.094;2023-03-31T05:25:47;94641.75;;;13.04;54.60
46456;BME280;64052;47.466;9.094;2023-03-31T05:30:48;94636.06;;;13.16;54.33
46456;BME280;64052;47.466;9.094;2023-03-31T05:35:50;94624.09;;;13.20;55.18
46456;BME280;64052;47.466;9.094;2023-03-31T05:40:51;94630.19;;;13.29;55.81
46456;BME280;64052;47.466;9.094;2023-03-31T05:45:53;94629.34;;;13.52;55.31
46456;BME280;64052;47.466;9.094;2023-03-31T05:50:56;94634.47;;;13.53;55.90
46456;BME280;64052;47.466;9.094;2023-03-31T05:55:59;94624.94;;;13.44;56.25
46456;BME280;64052;47.466;9.094;2023-03-31T06:01:11;94634.81;;;13.50;56.64
46456;BME280;64052;47.466;9.094;2023-03-31T06:06:13;94647.09;;;13.43;57.79
46456;BME280;64052;47.466;9.094;2023-03-31T06:11:17;94665.81;;;13.41;57.25
46456;BME280;64052;47.466;9.094;2023-03-31T06:16:20;94660.03;;;13.46;54.52
46456;BME280;64052;47.466;9.094;2023-03-31T06:21:21;94661.72;;;13.77;51.04
46456;BME280;64052;47.466;9.094;2023-03-31T06:26:23;94660.09;;;14.06;49.83
46456;BME280;64052;47.466;9.094;2023-03-31T06:31:25;94645.31;;;14.27;51.74
46456;BME280;64052;47.466;9.094;2023-03-31T06:36:26;94655.72;;;14.13;48.56
46456;BME280;64052;47.466;9.094;2023-03-31T06:41:28;94648.50;;;14.37;51.28
46456;BME280;64052;47.466;9.094;2023-03-31T06:46:29;94657.34;;;14.44;50.82
46456;BME280;64052;47.466;9.094;2023-03-31T06:51:31;94653.50;;;14.47;51.41
46456;BME280;64052;47.466;9.094;2023-03-31T06:56:33;94660.28;;;14.50;50.61
46456;BME280;64052;47.466;9.094;2023-03-31T07:01:34;94665.31;;;14.74;48.99
46456;BME280;64052;47.466;9.094;2023-03-31T07:06:36;94659.72;;;15.06;49.09
46456;BME280;64052;47.466;9.094;2023-03-31T07:11:37;94679.47;;;15.18;50.28
46456;BME280;64052;47.466;9.094;2023-03-31T07:16:40;94726.16;;;15.13;49.70
46456;BME280;64052;47.466;9.094;2023-03-31T07:21:41;94691.66;;;15.13;49.63
46456;BME280;64052;47.466;9.094;2023-03-31T07:26:43;94761.72;;;14.97;48.22
46456;BME280;64052;47.466;9.094;2023-03-31T07:31:46;94830.00;;;14.88;48.53
46456;BME280;64052;47.466;9.094;2023-03-31T07:36:47;94734.88;;;14.16;53.20
46456;BME280;64052;47.466;9.094;2023-03-31T07:41:49;94746.63;;;13.60;55.51
46456;BME280;64052;47.466;9.094;2023-03-31T07:46:51;94744.41;;;13.49;56.95
46456;BME280;64052;47.466;9.094;2023-03-31T07:51:52;94727.06;;;13.85;54.74
46456;BME280;64052;47.466;9.094;2023-03-31T07:56:54;94736.16;;;14.05;53.86
46456;BME280;64052;47.466;9.094;2023-03-31T08:01:55;94740.47;;;14.37;52.96
46456;BME280;64052;47.466;9.094;2023-03-31T08:06:57;94738.56;;;14.60;51.69
46456;BME280;64052;47.466;9.094;2023-03-31T08:11:59;94742.06;;;14.76;52.86
46456;BME280;64052;47.466;9.094;2023-03-31T08:17:00;94738.66;;;14.82;52.42
46456;BME280;64052;47.466;9.094;2023-03-31T08:22:02;94716.06;;;14.86;51.99
46456;BME280;64052;47.466;9.094;2023-03-31T08:27:04;94702.59;;;15.03;51.91
46456;BME280;64052;47.466;9.094;2023-03-31T08:32:11;94724.91;;;15.09;51.26
46456;BME280;64052;47.466;9.094;2023-03-31T08:37:13;94717.19;;;15.14;51.85
46456;BME280;64052;47.466;9.094;2023-03-31T08:42:20;94713.94;;;15.34;49.92
46456;BME280;64052;47.466;9.094;2023-03-31T08:47:25;94698.63;;;15.57;49.68
46456;BME280;64052;47.466;9.094;2023-03-31T08:52:41;94700.28;;;15.58;49.37
46456;BME280;64052;47.466;9.094;2023-03-31T09:03:40;94690.41;;;15.52;50.03
46456;BME280;64052;47.466;9.094;2023-03-31T09:08:46;94693.63;;;15.48;49.91
46456;BME280;64052;47.466;9.094;2023-03-31T09:14:12;94687.28;;;15.70;50.35
46456;BME280;64052;47.466;9.094;2023-03-31T09:24:56;94698.41;;;15.81;51.29
46456;BME280;64052;47.466;9.094;2023-03-31T09:30:10;94704.13;;;15.78;51.55
46456;BME280;64052;47.466;9.094;2023-03-31T09:35:20;94701.31;;;16.08;51.34
46456;BME280;64052;47.466;9.094;2023-03-31T09:40:24;94748.91;;;15.59;52.38
46456;BME280;64052;47.466;9.094;2023-03-31T09:45:27;94765.47;;;14.87;53.00
46456;BME280;64052;47.466;9.094;2023-03-31T09:50:32;94697.16;;;14.29;51.33
46456;BME280;64052;47.466;9.094;2023-03-31T09:56:00;94675.09;;;14.59;46.51
46456;BME280;64052;47.466;9.094;2023-03-31T10:01:05;94656.41;;;15.19;42.41
46456;BME280;64052;47.466;9.094;2023-03-31T10:06:09;94659.31;;;15.24;39.99
46456;BME280;64052;47.466;9.094;2023-03-31T10:11:12;94645.19;;;15.24;42.16
46456;BME280;64052;47.466;9.094;2023-03-31T10:16:22;94625.72;;;15.38;41.82
46456;BME280;64052;47.466;9.094;2023-03-31T10:21:27;94626.81;;;15.72;39.14
46456;BME280;64052;47.466;9.094;2023-03-31T10:26:36;94631.66;;;15.91;39.46
46456;BME280;64052;47.466;9.094;2023-03-31T10:31:38;94625.81;;;16.02;39.47
46456;BME280;64052;47.466;9.094;2023-03-31T10:36:45;94634.28;;;16.19;44.36
46456;BME280;64052;47.466;9.094;2023-03-31T10:41:51;94617.78;;;16.30;47.76
46456;BME280;64052;47.466;9.094;2023-03-31T10:46:53;94605.19;;;16.53;48.54
46456;BME280;64052;47.466;9.094;2023-03-31T10:51:59;94569.69;;;16.94;47.88
46456;BME280;64052;47.466;9.094;2023-03-31T10:57:01;94550.50;;;17.26;47.09
46456;BME280;64052;47.466;9.094;2023-03-31T11:18:17;94571.69;;;16.72;49.59
46456;BME280;64052;47.466;9.094;2023-03-31T11:23:40;94586.41;;;16.12;47.18
46456;BME280;64052;47.466;9.094;2023-03-31T11:29:10;94585.69;;;15.40;50.20
46456;BME280;64052;47.466;9.094;2023-03-31T11:45:11;94582.53;;;14.12;53.62
46456;BME280;64052;47.466;9.094;2023-03-31T11:50:24;94569.53;;;14.17;53.30
46456;BME280;64052;47.466;9.094;2023-03-31T11:55:28;94566.91;;;14.02;53.15
46456;BME280;64052;47.466;9.094;2023-03-31T12:00:37;94565.31;;;14.23;53.20
46456;BME280;64052;47.466;9.094;2023-03-31T12:05:54;94564.59;;;14.29;52.74
46456;BME280;64052;47.466;9.094;2023-03-31T12:11:01;94584.88;;;14.22;52.71
46456;BME280;64052;47.466;9.094;2023-03-31T12:21:10;94582.97;;;13.32;57.55
46456;BME280;64052;47.466;9.094;2023-03-31T12:26:33;94591.16;;;13.23;56.54
46456;BME280;64052;47.466;9.094;2023-03-31T12:31:39;94592.91;;;13.30;58.77
46456;BME280;64052;47.466;9.094;2023-03-31T12:47:25;94711.56;;;12.23;61.07
46456;BME280;64052;47.466;9.094;2023-03-31T13:14:00;94664.19;;;12.54;60.71
46456;BME280;64052;47.466;9.094;2023-03-31T13:19:03;94643.34;;;12.59;58.54
46456;BME280;64052;47.466;9.094;2023-03-31T13:24:05;94639.59;;;12.85;59.76
46456;BME280;64052;47.466;9.094;2023-03-31T13:29:19;94623.72;;;12.85;59.97
46456;BME280;64052;47.466;9.094;2023-03-31T13:34:21;94609.78;;;12.91;60.12
46456;BME280;64052;47.466;9.094;2023-03-31T14:06:11;94575.19;;;13.16;52.95
46456;BME280;64052;47.466;9.094;2023-03-31T14:16:25;94573.56;;;13.53;50.36
46456;BME280;64052;47.466;9.094;2023-03-31T14:21:37;94564.91;;;13.59;48.50
46456;BME280;64052;47.466;9.094;2023-03-31T14:31:58;94566.59;;;14.27;45.17
46456;BME280;64052;47.466;9.094;2023-03-31T14:37:08;94555.38;;;14.47;43.62
46456;BME280;64052;47.466;9.094;2023-03-31T14:42:13;94581.97;;;14.54;43.94
46456;BME280;64052;47.466;9.094;2023-03-31T14:47:20;94562.53;;;14.68;43.83
46456;BME280;64052;47.466;9.094;2023-03-31T14:52:22;94539.09;;;14.87;43.11
46456;BME280;64052;47.466;9.094;2023-03-31T14:57:33;94492.97;;;14.88;42.34
46456;BME280;64052;47.466;9.094;2023-03-31T15:02:39;94501.88;;;15.30;42.15
46456;BME280;64052;47.466;9.094;2023-03-31T15:07:42;94490.84;;;15.27;41.80
46456;BME280;64052;47.466;9.094;2023-03-31T15:12:43;94493.13;;;15.72;41.48
46456;BME280;64052;47.466;9.094;2023-03-31T15:17:46;94509.09;;;15.72;39.28
46456;BME280;64052;47.466;9.094;2023-03-31T15:22:48;94496.88;;;15.49;41.14
46456;BME280;64052;47.466;9.094;2023-03-31T15:28:01;94549.00;;;15.00;40.57
46456;BME280;64052;47.466;9.094;2023-03-31T15:33:06;94658.25;;;14.67;45.52
46456;BME280;64052;47.466;9.094;2023-03-31T15:38:20;94670.63;;;13.46;52.93
46456;BME280;64052;47.466;9.094;2023-03-31T15:43:48;94708.03;;;12.79;56.06
46456;BME280;64052;47.466;9.094;2023-03-31T15:48:52;94601.75;;;12.53;57.93
46456;BME280;64052;47.466;9.094;2023-03-31T15:53:54;94603.28;;;12.70;57.81
46456;BME280;64052;47.466;9.094;2023-03-31T15:58:59;94588.69;;;13.44;57.69
46456;BME280;64052;47.466;9.094;2023-03-31T16:04:06;94600.44;;;13.42;56.55
46456;BME280;64052;47.466;9.094;2023-03-31T16:14:24;94686.63;;;12.66;57.25
46456;BME280;64052;47.466;9.094;2023-03-31T16:19:31;94652.97;;;11.95;61.02
46456;BME280;64052;47.466;9.094;2023-03-31T16:24:39;94683.72;;;12.04;61.03
46456;BME280;64052;47.466;9.094;2023-03-31T16:29:40;94664.22;;;11.89;60.23
46456;BME280;64052;47.466;9.094;2023-03-31T16:35:00;94689.66;;;11.81;60.57
46456;BME280;64052;47.466;9.094;2023-03-31T16:40:02;94693.25;;;11.89;58.15
46456;BME280;64052;47.466;9.094;2023-03-31T16:45:04;94677.25;;;11.99;58.05
46456;BME280;64052;47.466;9.094;2023-03-31T16:50:15;94678.56;;;12.11;55.87
46456;BME280;64052;47.466;9.094;2023-03-31T16:55:16;94659.53;;;12.16;55.60
46456;BME280;64052;47.466;9.094;2023-03-31T17:00:18;94666.78;;;12.30;55.55
46456;BME280;64052;47.466;9.094;2023-03-31T17:05:20;94646.91;;;12.43;52.89
46456;BME280;64052;47.466;9.094;2023-03-31T17:10:22;94632.31;;;12.07;53.85
46456;BME280;64052;47.466;9.094;2023-03-31T17:15:24;94636.94;;;12.13;53.17
46456;BME280;64052;47.466;9.094;2023-03-31T17:20:25;94639.59;;;11.97;52.69
46456;BME280;64052;47.466;9.094;2023-03-31T17:25:27;94631.66;;;12.13;52.02
46456;BME280;64052;47.466;9.094;2023-03-31T17:30:29;94627.13;;;12.30;50.52
46456;BME280;64052;47.466;9.094;2023-03-31T17:35:31;94642.31;;;12.28;49.20
46456;BME280;64052;47.466;9.094;2023-03-31T17:40:32;94645.56;;;12.47;49.00
46456;BME280;64052;47.466;9.094;2023-03-31T17:45:34;94633.88;;;12.64;48.08
46456;BME280;64052;47.466;9.094;2023-03-31T17:50:36;94643.00;;;12.93;49.53
46456;BME280;64052;47.466;9.094;2023-03-31T17:55:43;94633.34;;;13.01;47.33
46456;BME280;64052;47.466;9.094;2023-03-31T18:00:45;94626.19;;;13.10;47.51
46456;BME280;64052;47.466;9.094;2023-03-31T18:05:47;94632.47;;;13.08;47.42
46456;BME280;64052;47.466;9.094;2023-03-31T18:10:49;94624.53;;;13.08;47.68
46456;BME280;64052;47.466;9.094;2023-03-31T18:15:52;94625.81;;;13.13;48.41
46456;BME280;64052;47.466;9.094;2023-03-31T18:20:54;94619.31;;;13.00;47.21
46456;BME280;64052;47.466;9.094;2023-03-31T18:26:00;94624.28;;;12.95;46.52
46456;BME280;64052;47.466;9.094;2023-03-31T18:31:04;94616.56;;;13.08;45.45
46456;BME280;64052;47.466;9.094;2023-03-31T18:36:07;94642.81;;;13.18;45.95
46456;BME280;64052;47.466;9.094;2023-03-31T18:41:09;94677.59;;;13.15;47.09
46456;BME280;64052;47.466;9.094;2023-03-31T18:46:11;94697.84;;;13.00;49.48
46456;BME280;64052;47.466;9.094;2023-03-31T18:51:13;94735.06;;;12.58;53.80
46456;BME280;64052;47.466;9.094;2023-03-31T18:56:15;94763.91;;;11.95;56.40
46456;BME280;64052;47.466;9.094;2023-03-31T19:01:17;94754.19;;;11.37;61.29
46456;BME280;64052;47.466;9.094;2023-03-31T19:06:18;94750.69;;;11.20;60.41
46456;BME280;64052;47.466;9.094;2023-03-31T19:11:20;94756.75;;;11.04;61.04
46456;BME280;64052;47.466;9.094;2023-03-31T19:16:22;94766.22;;;10.80;61.68
46456;BME280;64052;47.466;9.094;2023-03-31T19:21:24;94758.34;;;10.97;60.69
46456;BME280;64052;47.466;9.094;2023-03-31T19:26:25;94752.78;;;11.08;59.61
46456;BME280;64052;47.466;9.094;2023-03-31T19:31:32;94767.53;;;11.52;57.66
46456;BME280;64052;47.466;9.094;2023-03-31T19:36:35;94755.66;;;11.32;57.71
46456;BME280;64052;47.466;9.094;2023-03-31T19:41:36;94762.84;;;11.13;56.48
46456;BME280;64052;47.466;9.094;2023-03-31T19:46:38;94764.09;;;10.92;56.95
46456;BME280;64052;47.466;9.094;2023-03-31T19:51:40;94753.28;;;11.12;55.90
46456;BME280;64052;47.466;9.094;2023-03-31T19:56:41;94746.91;;;11.39;56.12
46456;BME280;64052;47.466;9.094;2023-03-31T20:01:43;94757.13;;;11.43;55.68
46456;BME280;64052;47.466;9.094;2023-03-31T20:06:45;94755.81;;;11.72;54.94
46456;BME280;64052;47.466;9.094;2023-03-31T20:11:48;94761.94;;;11.64;54.88
46456;BME280;64052;47.466;9.094;2023-03-31T20:16:50;94746.59;;;11.76;54.14
46456;BME280;64052;47.466;9.094;2023-03-31T20:21:52;94750.22;;;11.66;53.45
46456;BME280;64052;47.466;9.094;2023-03-31T20:26:53;94738.66;;;11.67;53.87
46456;BME280;64052;47.466;9.094;2023-03-31T20:31:55;94727.78;;;11.54;54.38
46456;BME280;64052;47.466;9.094;2023-03-31T20:36:57;94740.13;;;11.37;53.55
46456;BME280;64052;47.466;9.094;2023-03-31T20:41:59;94719.53;;;11.57;53.91
46456;BME280;64052;47.466;9.094;2023-03-31T20:47:00;94709.66;;;11.51;54.03
46456;BME280;64052;47.466;9.094;2023-03-31T20:52:17;94711.28;;;11.44;53.95
46456;BME280;64052;47.466;9.094;2023-03-31T20:57:19;94738.53;;;11.69;52.66
46456;BME280;64052;47.466;9.094;2023-03-31T21:02:21;94730.75;;;11.67;52.18
46456;BME280;64052;47.466;9.094;2023-03-31T21:07:25;94728.94;;;11.85;51.72
46456;BME280;64052;47.466;9.094;2023-03-31T21:12:28;94735.19;;;11.75;51.52
46456;BME280;64052;47.466;9.094;2023-03-31T21:17:29;94728.44;;;11.64;51.82
46456;BME280;64052;47.466;9.094;2023-03-31T21:22:32;94717.88;;;11.56;51.52
46456;BME280;64052;47.466;9.094;2023-03-31T21:27:33;94738.34;;;11.54;51.72
46456;BME280;64052;47.466;9.094;2023-03-31T21:32:35;94721.34;;;11.48;52.13
46456;BME280;64052;47.466;9.094;2023-03-31T21:37:36;94722.34;;;11.56;52.61
46456;BME280;64052;47.466;9.094;2023-03-31T21:42:39;94727.78;;;11.79;51.75
46456;BME280;64052;47.466;9.094;2023-03-31T21:47:41;94733.06;;;12.04;51.23
46456;BME280;64052;47.466;9.094;2023-03-31T21:52:43;94730.88;;;11.91;50.86
46456;BME280;64052;47.466;9.094;2023-03-31T21:57:44;94736.84;;;11.93;51.21
46456;BME280;64052;47.466;9.094;2023-03-31T22:02:46;94735.72;;;11.87;50.22
46456;BME280;64052;47.466;9.094;2023-03-31T22:07:47;94729.44;;;11.63;51.57
46456;BME280;64052;47.466;9.094;2023-03-31T22:12:49;94743.28;;;11.65;51.55
46456;BME280;64052;47.466;9.094;2023-03-31T22:17:50;94753.19;;;11.63;51.57
46456;BME280;64052;47.466;9.094;2023-03-31T22:22:52;94748.56;;;11.99;50.88
46456;BME280;64052;47.466;9.094;2023-03-31T22:27:54;94742.13;;;11.76;51.41
46456;BME280;64052;47.466;9.094;2023-03-31T22:32:55;94738.53;;;11.69;52.11
46456;BME280;64052;47.466;9.094;2023-03-31T22:37:57;94739.00;;;11.64;52.04
46456;BME280;64052;47.466;9.094;2023-03-31T22:42:59;94727.59;;;11.97;51.18
46456;BME280;64052;47.466;9.094;2023-03-31T22:48:00;94734.38;;;11.83;51.60
46456;BME280;64052;47.466;9.094;2023-03-31T22:53:02;94736.53;;;11.55;52.27
46456;BME280;64052;47.466;9.094;2023-03-31T22:58:04;94724.63;;;11.84;51.11
46456;BME280;64052;47.466;9.094;2023-03-31T23:03:06;94743.28;;;11.82;50.91
46456;BME280;64052;47.466;9.094;2023-03-31T23:08:08;94767.88;;;11.66;50.97
46456;BME280;64052;47.466;9.094;2023-03-31T23:13:09;94755.81;;;11.55;50.85
46456;BME280;64052;47.466;9.094;2023-03-31T23:18:11;94756.16;;;11.69;50.33
46456;BME280;64052;47.466;9.094;2023-03-31T23:23:13;94762.09;;;11.79;51.18
46456;BME280;64052;47.466;9.094;2023-03-31T23:33:39;94769.03;;;11.38;51.95
46456;BME280;64052;47.466;9.094;2023-03-31T23:44:05;94739.31;;;11.45;52.09
46456;BME280;64052;47.466;9.094;2023-03-31T23:49:06;94743.78;;;11.44;51.77
46456;BME280;64052;47.466;9.094;2023-03-31T23:54:08;94716.06;;;11.65;52.19
46456;BME280;64052;47.466;9.094;2023-03-31T23:59:10;94729.25;;;11.65;50.96
